LFMU/BZR METAR and TAF weather

Enter ICAO airport designator
Station Type Date Time Source
LFMU METAR 2021/03/03 02:00 UTC NOAA

LFMU 030200Z AUTO 02005KT CAVOK 08/05 Q1031


Station Type Date Time Source
LFMU Decoded METAR 2021/03/03 02:00 UTC NOAA

Beziers / Vias, France (LFMU) 43-19N 003-21E
Mar 02, 2021 - 09:00 PM EST / 2021.03.03 0200 UTC
Wind: from the NNE (020 degrees) at 6 MPH (5 KT):0
Visibility: greater than 7 mile(s):0
Temperature: 46 F (8 C)
Dew Point: 41 F (5 C)
Relative Humidity: 81%
Pressure (altimeter): 30.45 in. Hg (1031 hPa)
ob: LFMU 030200Z AUTO 02005KT CAVOK 08/05 Q1031
cycle: 2

Station Type Date Time Source
LFMU TAF 2021/03/02 20:15 UTC NOAA

TAF LFMU 022007Z 0220/0315 CNL

Example: see airport list